Stations météo

réclame
Mon MeteoGroup
Mt. St.Vincent, France (7382): Température de l'air & dewpoint: 30.07.2020 00:00:00 - 05.08.2020 00:00:00 (CEST)Mt. St.Vincent, France (7382): Vitesse du vent & gusts: 30.07.2020 00:00:00 - 05.08.2020 00:00:00 (CEST)Mt. St.Vincent, France (7382): Direction du vent: 30.07.2020 00:00:00 - 05.08.2020 00:00:00 (CEST)Mt. St.Vincent, France (7382): Ensoleillement: 30.07.2020 00:00:00 - 05.08.2020 00:00:00 (CEST)Mt. St.Vincent, France (7382): Quantités de précipitations: 30.07.2020 00:00:00 - 05.08.2020 00:00:00 (CEST)
Date & Time tt [°C] td [°C] ff [km/h] ff [knt] fx [km/h] fx [knt] dd sd [min] rr [mm]
05.08.2020 00:00:00 16,8 8,2 8 4 19 10 NE 0 0,0
04.08.2020 23:00:00 18,1 7,2 9 5 25 13 NNE 0 0,0
04.08.2020 22:00:00 18,1 7,2 10 5 20 11 NE 0 0,0
04.08.2020 21:00:00 19,0 6,8 6 4 14 8 NNE 34 0,0
04.08.2020 20:00:00 20,5 6,8 6 4 19 10 NNE 60 0,0
04.08.2020 19:00:00 22,2 6,4 6 3 26 14 N 60 0,0
04.08.2020 18:00:00 22,9 7,0 6 3 30 16 N 56 0,0
04.08.2020 17:00:00 21,4 6,9 9 5 28 15 NE 43 0,0
04.08.2020 16:00:00 20,4 7,4 8 5 34 19 NE 23 0,0
04.08.2020 15:00:00 22,4 7,0 9 5 29 15 NNE 58 0,0
04.08.2020 14:00:00 21,4 8,3 5 3 29 16 N 41 0,0
04.08.2020 13:00:00 20,4 9,0 8 5 34 19 N 35 0,0
04.08.2020 12:00:00 19,4 9,6 7 4 27 15 N 46 0,0
04.08.2020 11:00:00 17,0 9,4 7 4 26 14 N 48 0,0
04.08.2020 10:00:00 13,8 9,4 6 4 18 10 N 35 0,0
04.08.2020 09:00:00 13,8 9,8 5 3 29 15 N 60 0,0
04.08.2020 08:00:00 12,0 9,9 6 3 24 13 NNW 60 0,0
04.08.2020 07:00:00 10,3 9,4 5 3 23 13 NW 9 0,0
04.08.2020 06:00:00 10,9 9,2 9 5 26 14 N 0 0,0
04.08.2020 05:00:00 11,3 8,7 8 4 26 14 N 0 0,0
04.08.2020 04:00:00 12,5 8,4 8 4 27 15 N 0 0,0
04.08.2020 03:00:00 12,7 7,8 5 3 19 11 N 0 0,0
04.08.2020 02:00:00 13,2 7,6 4 2 22 12 N 0 0,0
04.08.2020 01:00:00 13,9 7,6 8 5 26 14 WNW 0 0,0
04.08.2020 00:00:00 14,3 7,1 9 5 25 13 WNW 0 0,0
03.08.2020 23:00:00 13,8 6,6 12 6 29 15 WNW 0 0,0
03.08.2020 22:00:00 14,3 6,6 9 5 30 16 WNW 0 0,0
03.08.2020 21:00:00 15,4 6,4 7 4 28 15 NW 22 0,0
03.08.2020 20:00:00 17,4 6,9 9 5 41 22 NW 21 0,0
03.08.2020 19:00:00 16,3 9,0 9 5 34 18 WNW 1 0,0
03.08.2020 18:00:00 16,0 8,5 15 8 48 26 WNW 0 0,0
03.08.2020 17:00:00 17,0 8,9 21 12 59 32 WNW 0 0,0
03.08.2020 16:00:00 19,0 7,1 7 4 27 15 NNW 0 0,0
03.08.2020 15:00:00 19,8 7,5 5 3 28 15 NW 17 0,0
03.08.2020 14:00:00 21,2 8,1 7 4 34 18 NNW 12 0,0
03.08.2020 13:00:00 19,1 7,5 6 3 31 17 NW 13 0,0
03.08.2020 12:00:00 18,8 6,9 7 4 22 12 N 6 0,0
03.08.2020 11:00:00 17,8 8,4 6 4 24 13 N 0 0,0
03.08.2020 10:00:00 16,0 8,5 7 4 22 12 N 0 0,0
03.08.2020 09:00:00 15,3 8,8 9 5 22 12 N 2 0,0
03.08.2020 08:00:00 14,7 8,9 8 4 23 12 N 0 0,0
03.08.2020 07:00:00 15,1 8,6 8 5 22 12 N 0 0,0
03.08.2020 06:00:00 15,4 8,4 8 5 21 12 NNW 0 0,0
03.08.2020 05:00:00 16,0 8,2 10 5 23 12 N 0 0,0
03.08.2020 04:00:00 16,2 9,1 8 4 18 10 N 0 0,0
03.08.2020 03:00:00 16,3 9,5 6 3 17 9 N 0 0,0
03.08.2020 02:00:00 16,5 10,1 3 2 15 8 NNW 0 0,0
03.08.2020 01:00:00 17,0 10,8 3 2 14 8 N 0 0,0
03.08.2020 00:00:00 18,2 11,3 5 3 20 11 NW 0 0,0
02.08.2020 23:00:00 18,8 11,4 4 2 19 10 N 0 0,0
02.08.2020 22:00:00 19,3 12,3 6 3 23 13 N 0 0,0
02.08.2020 21:00:00 19,6 12,8 3 2 10 5 N 0 0,0
02.08.2020 20:00:00 20,8 13,7 5 3 12 6 WNW 18 0,2
02.08.2020 19:00:00 20,8 14,2 4 2 19 10 NW 0 0,0
02.08.2020 18:00:00 22,9 12,2 3 2 19 11 N 7 0,0
02.08.2020 17:00:00 22,9 13,4 6 3 18 10 N 0 0,0
02.08.2020 16:00:00 23,2 13,4 4 2 22 12 NNW 0 0,0
02.08.2020 15:00:00 22,0 14,4 5 3 21 11 NW 0 0,0
02.08.2020 14:00:00 23,4 14,1 7 4 22 12 NNW 8 0,0
02.08.2020 13:00:00 24,5 14,3 7 4 24 13 N 27 0,0
02.08.2020 12:00:00 21,4 15,2 5 3 19 10 N 5 0,0
02.08.2020 11:00:00 22,0 16,5 4 2 16 9 NNW 9 0,0
02.08.2020 10:00:00 20,3 16,5 7 4 16 9 WNW 6 0,0
02.08.2020 09:00:00 18,9 16,5 9 5 16 9 WNW 0 0,0
02.08.2020 08:00:00 18,5 16,1 4 2 18 10 WNW 0 0,0
02.08.2020 07:00:00 18,1 15,5 10 5 21 11 WNW 0 0,0
02.08.2020 06:00:00 18,5 15,4 7 4 18 10 WNW 0 0,0
02.08.2020 05:00:00 19,1 15,4 8 5 15 8 WNW 0 0,0
02.08.2020 04:00:00 19,6 15,3 7 4 18 10 WNW 0 0,0
02.08.2020 03:00:00 19,8 15,0 4 2 23 12 NW 0 0,0
02.08.2020 02:00:00 20,0 14,8 9 5 25 14 WNW 0 0,0
02.08.2020 01:00:00 20,3 15,3 11 6 28 15 WNW 0 0,0
02.08.2020 00:00:00 21,1 15,9 21 11 40 21 W 0 0,0
01.08.2020 23:00:00 22,2 16,9 23 13 35 19 W 0 0,0
01.08.2020 22:00:00 23,3 17,3 19 11 31 17 WNW 0 0,0
01.08.2020 21:00:00 24,4 16,9 21 12 33 18 WNW 13 0,0
01.08.2020 20:00:00 25,3 16,4 18 10 48 26 WNW 0 0,0
01.08.2020 19:00:00 26,6 15,3 28 15 50 27 WNW 0 0,0
01.08.2020 18:00:00 28,1 16,1 28 15 46 25 WNW 0 0,0
01.08.2020 17:00:00 29,6 15,0 24 13 39 21 W 24 0,0
01.08.2020 16:00:00 32,2 16,1 9 5 31 17 WNW 60 0,0
01.08.2020 15:00:00 31,5 17,4 14 8 28 15 W 60 0,0
01.08.2020 14:00:00 30,7 17,4 13 7 26 14 W 60 0,0
01.08.2020 13:00:00 29,0 17,2 8 5 20 11 W 60 0,0
01.08.2020 12:00:00 26,8 17,3 6 3 24 13 W 60 0,0
01.08.2020 11:00:00 24,7 18,4 15 8 28 15 W 60 0,0
01.08.2020 10:00:00 22,5 17,8 18 10 31 17 W 60 0,0
01.08.2020 09:00:00 20,9 16,9 23 12 - - W 60 0,0
01.08.2020 08:00:00 19,8 15,9 23 13 34 19 W 58 0,0
01.08.2020 07:00:00 20,9 14,5 23 13 31 17 WNW 0 0,0
01.08.2020 06:00:00 20,8 14,4 22 12 31 17 W 0 0,0
01.08.2020 05:00:00 20,7 15,0 19 10 28 15 W 0 0,0
01.08.2020 04:00:00 22,3 14,7 16 9 22 12 WSW 0 0,0
01.08.2020 03:00:00 20,7 15,3 9 5 31 17 W 0 0,0
01.08.2020 02:00:00 21,5 14,9 18 10 31 17 SE 0 0,0
01.08.2020 01:00:00 25,5 12,3 11 6 39 21 NNE 0 0,0
01.08.2020 00:00:00 22,3 15,4 14 8 31 17 N 0 0,0
31.07.2020 23:00:00 20,2 16,4 8 4 61 33 NW 0 0,0
31.07.2020 22:00:00 20,1 16,7 32 18 72 39 WNW 0 2,4
31.07.2020 21:00:00 22,8 16,1 29 15 67 36 WNW 0 0,2
31.07.2020 20:00:00 32,2 11,4 15 8 27 14 E 0 0,0
31.07.2020 19:00:00 33,5 11,9 16 9 31 17 SE 3 0,0
31.07.2020 18:00:00 35,9 12,8 15 8 35 19 SE 54 0,0
31.07.2020 17:00:00 36,7 13,5 11 6 25 14 SSE 60 0,0
31.07.2020 16:00:00 36,2 13,0 11 6 24 13 SSE 56 0,0
31.07.2020 15:00:00 36,1 13,6 5 3 53 29 S 60 0,0
31.07.2020 14:00:00 34,9 11,3 6 3 41 22 SW 60 0,0
31.07.2020 13:00:00 33,2 14,3 11 6 23 12 ESE 60 0,0
31.07.2020 12:00:00 31,9 14,1 9 5 22 12 ESE 60 0,0
31.07.2020 11:00:00 30,7 13,0 10 5 21 12 ESE 60 0,0
31.07.2020 10:00:00 29,1 13,7 10 5 18 10 E 60 0,0
31.07.2020 09:00:00 28,6 14,1 4 2 9 5 E 60 0,0
31.07.2020 08:00:00 26,2 11,5 8 4 18 10 SSW 60 0,0
31.07.2020 07:00:00 24,5 11,8 13 7 16 8 WSW 14 0,0
31.07.2020 06:00:00 24,3 11,9 11 6 16 8 WSW 0 0,0
31.07.2020 05:00:00 24,9 12,8 6 3 14 8 WSW 0 0,0
31.07.2020 04:00:00 25,6 12,4 10 5 16 8 WSW 0 0,0
31.07.2020 03:00:00 24,9 13,8 9 5 17 9 SE 0 0,0
31.07.2020 02:00:00 24,7 12,3 14 7 24 13 E 0 0,0
31.07.2020 01:00:00 25,6 12,1 20 11 29 15 E 0 0,0
31.07.2020 00:00:00 26,2 11,9 21 11 29 16 E 0 0,0
30.07.2020 23:00:00 26,7 12,0 18 10 29 16 ENE 0 0,0
30.07.2020 22:00:00 27,3 12,1 18 10 27 15 ENE 0 0,0
30.07.2020 21:00:00 28,2 12,1 18 10 25 13 ENE 32 0,0
30.07.2020 20:00:00 30,0 12,0 10 6 21 11 ENE 60 0,0
30.07.2020 19:00:00 31,2 11,1 10 5 21 12 ENE 60 0,0
30.07.2020 18:00:00 31,5 10,8 13 7 32 17 ENE 60 0,0
30.07.2020 17:00:00 31,6 10,3 16 8 32 17 E 60 0,0
30.07.2020 16:00:00 31,5 10,8 13 7 29 15 E 60 0,0
30.07.2020 15:00:00 30,2 9,7 12 7 29 16 E 60 0,0
30.07.2020 14:00:00 29,7 8,7 13 7 32 17 ESE 60 0,0
30.07.2020 13:00:00 28,2 9,0 18 10 31 17 ENE 60 0,0
30.07.2020 12:00:00 26,6 8,5 16 9 32 17 ENE 60 0,0
30.07.2020 11:00:00 24,8 8,7 18 10 28 15 E 60 0,0
30.07.2020 10:00:00 22,8 7,7 18 10 26 14 ENE 60 0,0
30.07.2020 09:00:00 21,0 6,9 16 9 33 18 ENE 60 0,0
30.07.2020 08:00:00 21,0 6,1 19 11 34 18 ENE 60 0,0
30.07.2020 07:00:00 18,4 5,9 19 11 31 17 ENE 15 0,0
30.07.2020 06:00:00 17,6 5,2 22 12 30 16 ENE 0 0,0
30.07.2020 05:00:00 17,6 4,9 22 12 - - ENE 0 0,0
30.07.2020 04:00:00 18,4 5,2 23 12 36 19 ENE 0 0,0
30.07.2020 03:00:00 19,1 6,2 23 12 35 19 ENE 0 0,0
30.07.2020 02:00:00 20,2 6,9 23 12 33 18 ENE 0 0,0
30.07.2020 01:00:00 20,9 7,1 17 9 25 14 ENE 0 0,0
30.07.2020 00:00:00 21,9 6,9 15 8 21 11 E 0 0,0

tt = Température de l'air
td = dewpoint
ff = Vitesse du vent
fx = gusts
dd = Direction du vent
sd = Ensoleillement
rr = Quantités de précipitations

stations d'obs. à proximité